Saint Louis, Missouri
Traffic Map
Current Weather Conditions
Saint Louis, Missouri
Clear
Clear
16°
Feels Like: 16°
Wind Chill: 16° Ceiling: Unl
Heat Index: 16° Visibility: 10mi
Dew Point: Wind: 3mph
Humidity: 54% Direction: 190° (S)
Pressure: 29.79in Gusts: 0mph
Raw Report DataKCPS 272353Z 19003KT 10SM CLR 16/07 A2979 RMK AO2 SLP087 T01610067 10172 20111 53003
Traffic Incident Summary
Active as of:
Severity:
Category:
InformationThere was an issue retrieving the traffic information for this location. Please try a different location or try again shortly.
Advertisements
Track Severe Weather on mobile